This is the latest recevied weather packets stored in our database for station/object KB1WCR. If no packets are shown the sender has not sent any weather packets the latest 10 day(s).
| Time | Temp. | Humidity | Pressure | Rain* | Wind** | Luminosity | Snow |
|---|---|---|---|---|---|---|---|
| 1777927853 | 21.11° C | 41% | 1004.9 hPa | 0 mm | - | 411 W/m² | - |
| 1777927550 | 21.11° C | 40% | 1004.9 hPa | 0 mm | - | 170 W/m² | - |
| 1777927250 | 21.67° C | 39% | 1004.9 hPa | 0 mm | - | 276 W/m² | - |
| 1777926947 | 21.11° C | 42% | 1004.9 hPa | 0 mm | - | 446 W/m² | - |
| 1777926644 | 21.11° C | 40% | 1004.8 hPa | 0 mm | - | 188 W/m² | - |
| 1777926339 | 20.56° C | 39% | 1004.8 hPa | 0 mm | - | 471 W/m² | - |
| 1777926037 | 20.56° C | 41% | 1004.9 hPa | 0 mm | - | 175 W/m² | - |
| 1777925734 | 20.56° C | 41% | 1004.9 hPa | 0 mm | - | 181 W/m² | - |
| 1777925432 | 20° C | 43% | 1005 hPa | 0 mm | - | 165 W/m² | - |
| 1777925127 | 20.56° C | 41% | 1004.9 hPa | 0 mm | - | 166 W/m² | - |
| 1777924825 | 20.56° C | 42% | 1004.9 hPa | 0 mm | - | 597 W/m² | - |
| 1777924520 | 20.56° C | 43% | 1004.9 hPa | 0 mm | - | 198 W/m² | - |
| 1777924217 | 21.11° C | 41% | 1005.1 hPa | 0 mm | - | 606 W/m² | - |
| 1777923914 | 21.11° C | 41% | 1005.2 hPa | 0 mm | - | 477 W/m² | - |
| 1777923609 | 20.56° C | 43% | 1005.1 hPa | 0 mm | - | 655 W/m² | - |
| 1777923306 | 20.56° C | 42% | 1005.2 hPa | 0 mm | - | 516 W/m² | - |
| 1777923005 | 20.56° C | 42% | 1005.2 hPa | 0 mm | - | 558 W/m² | - |
| 1777922703 | 21.11° C | 42% | 1005 hPa | 0 mm | - | 573 W/m² | - |
| 1777922401 | 20° C | 44% | 1005.2 hPa | 0 mm | - | 578 W/m² | - |
| 1777922098 | 20° C | 41% | 1005.1 hPa | 0 mm | - | 585 W/m² | - |
| 1777921794 | 20° C | 43% | 1005 hPa | 0 mm | - | 596 W/m² | - |
| 1777921489 | 20° C | 42% | 1005.1 hPa | 0 mm | - | 606 W/m² | - |
| 1777921186 | 19.44° C | 44% | 1005.2 hPa | 0 mm | - | 648 W/m² | - |
| 1777920884 | 18.89° C | 46% | 1005.3 hPa | 0 mm | - | 686 W/m² | - |
| 1777920579 | 18.89° C | 46% | 1005.1 hPa | 0 mm | - | 678 W/m² | - |
* Rain latest hour (hover to see other rain measurements)
** Current wind speed in m/s (hover to see current wind gust speed)